createdAt,value
2023-05-14T00:00:22.318Z,95025.00
2023-05-14T00:01:22.175Z,95028.00
2023-05-14T00:02:22.205Z,95028.00
2023-05-14T00:03:22.307Z,95028.00
2023-05-14T00:04:22.310Z,95030.00
2023-05-14T00:05:22.217Z,95028.00
2023-05-14T00:06:22.244Z,95026.00
2023-05-14T00:07:22.256Z,95025.00
2023-05-14T00:08:22.219Z,95026.00
2023-05-14T00:09:22.264Z,95025.00
2023-05-14T00:10:22.387Z,95026.00
2023-05-14T00:11:22.350Z,95026.00
2023-05-14T00:12:22.401Z,95025.00
2023-05-14T00:13:22.489Z,95026.00
2023-05-14T00:14:22.467Z,95025.00
2023-05-14T00:15:22.407Z,95023.00
2023-05-14T00:16:22.527Z,95023.00
2023-05-14T00:17:22.553Z,95023.00
2023-05-14T00:18:22.597Z,95017.00
2023-05-14T00:19:22.660Z,95021.00
2023-05-14T00:20:23.451Z,95019.00
2023-05-14T00:21:22.726Z,95019.00
2023-05-14T00:22:22.722Z,95015.00
2023-05-14T00:23:22.742Z,95019.00
2023-05-14T00:24:23.091Z,95015.00
2023-05-14T00:25:22.739Z,95013.00
2023-05-14T00:26:22.750Z,95011.00
2023-05-14T00:27:23.672Z,95011.00
2023-05-14T00:28:22.753Z,95013.00
2023-05-14T00:29:22.819Z,95011.00
2023-05-14T00:30:22.981Z,95011.00
2023-05-14T00:31:22.921Z,95009.00
2023-05-14T00:32:23.087Z,95007.00
2023-05-14T00:33:22.952Z,95007.00
2023-05-14T00:34:22.955Z,95009.00
2023-05-14T00:35:23.034Z,95007.00
2023-05-14T00:36:23.039Z,95009.00
2023-05-14T00:37:23.071Z,95011.00
2023-05-14T00:38:23.178Z,95011.00
2023-05-14T00:39:23.141Z,95011.00
2023-05-14T00:40:23.412Z,95017.00
2023-05-14T00:41:23.215Z,95013.00
2023-05-14T00:42:23.160Z,95015.00
2023-05-14T00:43:23.183Z,95017.00
2023-05-14T00:44:23.277Z,95015.00
2023-05-14T00:45:23.248Z,95015.00
2023-05-14T00:46:23.464Z,95015.00
2023-05-14T00:47:23.386Z,95015.00
2023-05-14T00:48:23.416Z,95013.00
2023-05-14T00:49:23.419Z,95013.00
2023-05-14T00:50:23.904Z,95013.00
2023-05-14T00:51:23.480Z,95011.00
2023-05-14T00:52:23.502Z,95009.00
2023-05-14T00:53:23.556Z,95011.00
2023-05-14T00:54:23.658Z,95013.00
2023-05-14T00:55:23.606Z,95009.00
2023-05-14T00:56:23.622Z,95009.00
2023-05-14T00:57:23.652Z,95011.00
2023-05-14T00:58:23.630Z,95013.00
2023-05-14T00:59:23.694Z,95013.00
2023-05-14T01:00:23.935Z,95015.00
2023-05-14T01:01:23.766Z,95009.00
2023-05-14T01:02:23.763Z,95009.00
2023-05-14T01:03:23.810Z,95013.00
2023-05-14T01:04:23.825Z,95011.00
2023-05-14T01:05:23.788Z,95009.00
2023-05-14T01:06:23.827Z,95009.00
2023-05-14T01:07:23.845Z,95007.00
2023-05-14T01:08:23.856Z,95005.00
2023-05-14T01:09:23.878Z,95009.00
2023-05-14T01:10:24.127Z,95007.00
2023-05-14T01:11:23.879Z,95005.00
2023-05-14T01:12:23.900Z,95005.00
2023-05-14T01:13:23.874Z,95007.00
2023-05-14T01:14:23.920Z,95005.00
2023-05-14T01:15:24.009Z,95001.00
2023-05-14T01:16:23.970Z,95003.00
2023-05-14T01:17:24.292Z,95007.00
2023-05-14T01:18:24.068Z,95007.00
2023-05-14T01:19:24.032Z,95001.00
2023-05-14T01:20:24.347Z,94999.00
2023-05-14T01:21:24.058Z,95001.00
2023-05-14T01:22:24.059Z,95001.00
2023-05-14T01:23:24.059Z,95001.00
2023-05-14T01:24:24.155Z,94999.00
2023-05-14T01:25:24.171Z,94999.00
2023-05-14T01:26:24.201Z,95001.00
2023-05-14T01:27:24.723Z,95003.00
2023-05-14T01:28:24.255Z,95003.00
2023-05-14T01:29:24.337Z,95005.00
2023-05-14T01:30:24.677Z,95003.00
2023-05-14T01:31:24.323Z,95003.00
2023-05-14T01:32:24.343Z,95005.00
2023-05-14T01:33:24.331Z,95005.00
2023-05-14T01:34:24.332Z,95007.00
2023-05-14T01:35:24.394Z,95003.00
2023-05-14T01:36:24.370Z,95007.00
2023-05-14T01:37:24.388Z,95003.00
2023-05-14T01:38:24.416Z,95005.00
2023-05-14T01:39:25.420Z,95003.00
2023-05-14T01:40:24.816Z,95003.00
2023-05-14T01:41:24.568Z,95007.00
2023-05-14T01:42:24.599Z,95001.00
2023-05-14T01:43:24.668Z,95003.00
2023-05-14T01:44:24.695Z,95005.00
2023-05-14T01:45:24.738Z,95005.00
2023-05-14T01:46:24.722Z,95001.00
2023-05-14T01:47:24.799Z,95001.00
2023-05-14T01:48:24.780Z,95001.00
2023-05-14T01:49:24.847Z,95003.00
2023-05-14T01:50:25.044Z,95005.00
2023-05-14T01:51:24.894Z,95005.00
2023-05-14T01:52:24.933Z,95003.00
2023-05-14T01:53:24.915Z,95003.00
2023-05-14T01:54:24.944Z,95003.00
2023-05-14T01:55:24.985Z,94997.00
2023-05-14T01:56:25.000Z,94997.00
2023-05-14T01:57:25.076Z,94997.00
2023-05-14T01:58:25.073Z,95001.00
2023-05-14T01:59:25.105Z,94999.00
2023-05-14T02:00:25.369Z,94999.00
2023-05-14T02:01:25.156Z,94999.00
2023-05-14T02:02:25.203Z,94997.00
2023-05-14T02:03:25.511Z,94995.00
2023-05-14T02:04:25.174Z,94999.00
2023-05-14T02:05:25.198Z,94995.00
2023-05-14T02:06:25.222Z,95001.00
2023-05-14T02:07:25.272Z,94999.00
2023-05-14T02:08:25.305Z,94995.00
2023-05-14T02:09:25.429Z,94991.00
2023-05-14T02:10:25.585Z,94995.00
2023-05-14T02:11:25.445Z,94995.00
2023-05-14T02:12:25.490Z,94995.00
2023-05-14T02:13:25.514Z,94995.00
2023-05-14T02:14:26.292Z,94989.00
2023-05-14T02:15:26.001Z,94995.00
2023-05-14T02:16:25.825Z,94987.00
2023-05-14T02:17:25.754Z,94991.00
2023-05-14T02:18:25.858Z,94987.00
2023-05-14T02:19:25.760Z,94987.00
2023-05-14T02:20:25.964Z,94987.00
2023-05-14T02:21:25.772Z,94985.00
2023-05-14T02:22:25.768Z,94985.00
2023-05-14T02:23:37.949Z,94985.00
2023-05-14T02:24:27.608Z,94987.00
2023-05-14T02:25:25.841Z,94983.00
2023-05-14T02:26:25.813Z,94983.00
2023-05-14T02:27:25.772Z,94985.00
2023-05-14T02:28:25.782Z,94987.00
2023-05-14T02:29:25.746Z,94987.00
2023-05-14T02:30:25.900Z,94985.00
2023-05-14T02:31:25.819Z,94981.00
2023-05-14T02:32:25.788Z,94983.00
2023-05-14T02:33:25.800Z,94979.00
2023-05-14T02:34:25.794Z,94981.00
2023-05-14T02:35:25.852Z,94978.00
2023-05-14T02:36:25.902Z,94978.00
2023-05-14T02:37:25.918Z,94978.00
2023-05-14T02:38:25.984Z,94976.00
2023-05-14T02:39:26.017Z,94976.00
2023-05-14T02:40:26.171Z,94976.00
2023-05-14T02:41:26.036Z,94974.00
2023-05-14T02:42:26.107Z,94970.00
2023-05-14T02:43:26.145Z,94972.00
2023-05-14T02:44:26.145Z,94970.00
2023-05-14T02:45:26.143Z,94968.00
2023-05-14T02:46:26.136Z,94966.00
2023-05-14T02:47:26.214Z,94968.00
2023-05-14T02:48:26.207Z,94964.00
2023-05-14T02:49:26.282Z,94962.00
2023-05-14T02:50:26.424Z,94962.00
2023-05-14T02:51:26.303Z,94964.00
2023-05-14T02:52:26.386Z,94964.00
2023-05-14T02:53:26.409Z,94964.00
2023-05-14T02:54:26.506Z,94964.00
2023-05-14T02:55:26.624Z,94960.00
2023-05-14T02:56:26.586Z,94960.00
2023-05-14T02:57:26.618Z,94964.00
2023-05-14T02:58:28.450Z,94964.00
2023-05-14T02:59:26.731Z,94962.00
2023-05-14T03:00:26.819Z,94962.00
2023-05-14T03:01:26.868Z,94956.00
2023-05-14T03:02:26.967Z,94956.00
2023-05-14T03:03:26.910Z,94956.00
2023-05-14T03:04:26.923Z,94956.00
2023-05-14T03:05:26.991Z,94960.00
2023-05-14T03:06:27.094Z,94956.00
2023-05-14T03:07:27.073Z,94958.00
2023-05-14T03:08:27.137Z,94956.00
2023-05-14T03:09:27.184Z,94958.00
2023-05-14T03:10:27.264Z,94956.00
2023-05-14T03:11:34.888Z,94962.00
2023-05-14T03:12:27.331Z,94956.00
2023-05-14T03:13:27.236Z,94958.00
2023-05-14T03:14:27.261Z,94962.00
2023-05-14T03:15:27.234Z,94960.00
2023-05-14T03:16:27.285Z,94962.00
2023-05-14T03:17:27.235Z,94960.00
2023-05-14T03:18:27.234Z,94958.00
2023-05-14T03:19:27.204Z,94958.00
2023-05-14T03:20:27.210Z,94954.00
2023-05-14T03:21:27.163Z,94954.00
2023-05-14T03:22:27.164Z,94948.00
2023-05-14T03:23:27.181Z,94948.00
2023-05-14T03:24:27.219Z,94948.00
2023-05-14T03:25:27.183Z,94948.00
2023-05-14T03:26:27.226Z,94950.00
2023-05-14T03:27:27.260Z,94948.00
2023-05-14T03:28:27.294Z,94950.00
2023-05-14T03:29:27.388Z,94948.00
2023-05-14T03:30:27.448Z,94948.00
2023-05-14T03:31:27.517Z,94952.00
2023-05-14T03:32:27.490Z,94950.00
2023-05-14T03:33:27.482Z,94948.00
2023-05-14T03:34:27.526Z,94950.00
2023-05-14T03:35:27.545Z,94948.00
2023-05-14T03:36:27.536Z,94948.00
2023-05-14T03:37:27.592Z,94948.00
2023-05-14T03:38:27.619Z,94946.00
2023-05-14T03:39:27.651Z,94950.00
2023-05-14T03:40:27.631Z,94950.00
2023-05-14T03:41:27.676Z,94948.00
2023-05-14T03:42:27.727Z,94952.00
2023-05-14T03:43:27.744Z,94952.00
2023-05-14T03:44:27.788Z,94952.00
2023-05-14T03:45:27.834Z,94950.00
2023-05-14T03:46:27.786Z,94952.00
2023-05-14T03:47:27.855Z,94952.00
2023-05-14T03:48:28.109Z,94954.00
2023-05-14T03:49:27.980Z,94956.00
2023-05-14T03:50:28.009Z,94958.00
2023-05-14T03:51:28.057Z,94956.00
2023-05-14T03:52:28.137Z,94960.00
2023-05-14T03:53:28.167Z,94960.00
2023-05-14T03:54:28.230Z,94958.00
2023-05-14T03:55:28.263Z,94960.00
2023-05-14T03:56:28.344Z,94962.00
2023-05-14T03:57:28.370Z,94962.00
2023-05-14T03:58:28.398Z,94964.00
2023-05-14T03:59:28.424Z,94960.00
2023-05-14T04:00:36.046Z,94964.00
2023-05-14T04:01:28.455Z,94962.00
2023-05-14T04:02:28.528Z,94960.00
2023-05-14T04:03:28.546Z,94960.00
2023-05-14T04:04:28.549Z,94958.00
2023-05-14T04:05:28.419Z,94962.00
2023-05-14T04:06:28.412Z,94962.00
2023-05-14T04:07:28.411Z,94956.00
2023-05-14T04:08:28.402Z,94960.00
2023-05-14T04:09:28.380Z,94954.00
2023-05-14T04:10:28.387Z,94956.00
2023-05-14T04:11:28.381Z,94956.00
2023-05-14T04:12:28.356Z,94952.00
2023-05-14T04:13:28.363Z,94952.00
2023-05-14T04:14:28.417Z,94952.00
2023-05-14T04:15:28.514Z,94952.00
2023-05-14T04:16:28.960Z,94950.00
2023-05-14T04:17:28.654Z,94950.00
2023-05-14T04:18:28.673Z,94952.00
2023-05-14T04:19:29.067Z,94950.00
2023-05-14T04:20:28.718Z,94948.00
2023-05-14T04:21:28.809Z,94948.00
2023-05-14T04:22:28.782Z,94946.00
2023-05-14T04:23:28.839Z,94944.00
2023-05-14T04:24:28.851Z,94944.00
2023-05-14T04:25:28.891Z,94946.00
2023-05-14T04:26:28.972Z,94944.00
2023-05-14T04:27:29.025Z,94942.00
2023-05-14T04:28:29.136Z,94940.00
2023-05-14T04:29:29.149Z,94942.00
2023-05-14T04:30:29.143Z,94944.00
2023-05-14T04:31:29.145Z,94942.00
2023-05-14T04:32:29.173Z,94940.00
2023-05-14T04:33:29.240Z,94942.00
2023-05-14T04:34:29.215Z,94944.00
2023-05-14T04:35:29.238Z,94940.00
2023-05-14T04:36:29.384Z,94948.00
2023-05-14T04:37:29.235Z,94946.00
2023-05-14T04:38:29.281Z,94946.00
2023-05-14T04:39:29.305Z,94946.00
2023-05-14T04:40:29.268Z,94946.00
2023-05-14T04:41:29.295Z,94950.00
2023-05-14T04:42:29.365Z,94948.00
2023-05-14T04:43:29.379Z,94952.00
2023-05-14T04:44:29.385Z,94954.00
2023-05-14T04:45:29.437Z,94952.00
2023-05-14T04:46:29.685Z,94956.00
2023-05-14T04:47:29.649Z,94954.00
2023-05-14T04:48:29.621Z,94952.00
2023-05-14T04:49:29.677Z,94952.00
2023-05-14T04:50:29.693Z,94952.00
2023-05-14T04:51:29.734Z,94952.00
2023-05-14T04:52:29.697Z,94948.00
2023-05-14T04:53:29.747Z,94948.00
2023-05-14T04:54:29.853Z,94948.00
2023-05-14T04:55:29.809Z,94946.00
2023-05-14T04:56:29.886Z,94950.00
2023-05-14T04:57:29.965Z,94950.00
2023-05-14T04:58:30.783Z,94946.00
2023-05-14T04:59:30.298Z,94950.00
2023-05-14T05:00:30.002Z,94944.00
2023-05-14T05:01:30.036Z,94948.00
2023-05-14T05:02:30.053Z,94950.00
2023-05-14T05:03:30.120Z,94950.00
2023-05-14T05:04:30.147Z,94946.00
2023-05-14T05:05:30.200Z,94946.00
2023-05-14T05:06:30.243Z,94948.00
2023-05-14T05:07:30.253Z,94948.00
2023-05-14T05:08:30.272Z,94950.00
2023-05-14T05:09:30.282Z,94952.00
2023-05-14T05:10:30.346Z,94956.00
2023-05-14T05:11:30.375Z,94956.00
2023-05-14T05:12:30.385Z,94960.00
2023-05-14T05:13:30.360Z,94956.00
2023-05-14T05:14:30.528Z,94960.00
2023-05-14T05:15:30.395Z,94960.00
2023-05-14T05:16:30.451Z,94958.00
2023-05-14T05:17:30.555Z,94956.00
2023-05-14T05:18:30.612Z,94954.00
2023-05-14T05:19:42.410Z,94954.00
2023-05-14T05:20:31.590Z,94952.00
2023-05-14T05:21:30.621Z,94954.00
2023-05-14T05:22:30.572Z,94954.00
2023-05-14T05:23:30.585Z,94956.00
2023-05-14T05:24:30.591Z,94956.00
2023-05-14T05:25:30.558Z,94954.00
2023-05-14T05:26:30.549Z,94952.00
2023-05-14T05:27:30.902Z,94956.00
2023-05-14T05:28:30.575Z,94954.00
2023-05-14T05:29:30.617Z,94954.00
2023-05-14T05:30:30.681Z,94958.00
2023-05-14T05:31:30.754Z,94954.00
2023-05-14T05:32:30.827Z,94954.00
2023-05-14T05:33:30.846Z,94952.00
2023-05-14T05:34:30.869Z,94952.00
2023-05-14T05:35:30.862Z,94950.00
2023-05-14T05:36:30.904Z,94950.00
2023-05-14T05:37:30.972Z,94950.00
2023-05-14T05:38:30.933Z,94948.00
2023-05-14T05:39:31.011Z,94948.00
2023-05-14T05:40:31.026Z,94954.00
2023-05-14T05:41:31.108Z,94948.00
2023-05-14T05:42:31.120Z,94948.00
2023-05-14T05:43:31.221Z,94948.00
2023-05-14T05:44:31.242Z,94952.00
2023-05-14T05:45:31.213Z,94948.00
2023-05-14T05:46:31.293Z,94948.00
2023-05-14T05:47:31.386Z,94946.00
2023-05-14T05:48:31.416Z,94942.00
2023-05-14T05:49:31.465Z,94946.00
2023-05-14T05:50:31.470Z,94944.00
2023-05-14T05:51:31.526Z,94942.00
2023-05-14T05:52:31.635Z,94944.00
2023-05-14T05:53:31.634Z,94940.00
2023-05-14T05:54:31.786Z,94944.00
2023-05-14T05:55:31.774Z,94944.00
2023-05-14T05:56:31.773Z,94944.00
2023-05-14T05:57:31.820Z,94942.00
2023-05-14T05:58:31.865Z,94942.00
2023-05-14T05:59:31.856Z,94940.00
2023-05-14T06:00:31.899Z,94940.00
2023-05-14T06:01:31.936Z,94934.00
2023-05-14T06:02:32.239Z,94931.00
2023-05-14T06:03:32.001Z,94932.00
2023-05-14T06:04:32.046Z,94932.00
2023-05-14T06:05:32.057Z,94931.00
2023-05-14T06:06:32.091Z,94931.00
2023-05-14T06:07:32.101Z,94932.00
2023-05-14T06:08:32.179Z,94936.00
2023-05-14T06:09:32.155Z,94929.00
2023-05-14T06:10:32.173Z,94929.00
2023-05-14T06:11:32.219Z,94931.00
2023-05-14T06:12:32.233Z,94934.00
2023-05-14T06:13:32.253Z,94932.00
2023-05-14T06:14:32.353Z,94934.00
2023-05-14T06:15:32.366Z,94936.00
2023-05-14T06:16:32.495Z,94932.00
2023-05-14T06:17:32.512Z,94931.00
2023-05-14T06:18:32.540Z,94931.00
2023-05-14T06:19:32.572Z,94929.00
2023-05-14T06:20:32.601Z,94927.00
2023-05-14T06:21:32.642Z,94929.00
2023-05-14T06:22:32.637Z,94927.00
2023-05-14T06:23:32.686Z,94925.00
2023-05-14T06:24:32.750Z,94927.00
2023-05-14T06:25:32.748Z,94925.00
2023-05-14T06:26:32.798Z,94927.00
2023-05-14T06:27:32.861Z,94927.00
2023-05-14T06:28:32.909Z,94925.00
2023-05-14T06:29:32.972Z,94919.00
2023-05-14T06:30:33.035Z,94919.00
2023-05-14T06:31:33.098Z,94919.00
2023-05-14T06:32:33.134Z,94921.00
2023-05-14T06:33:33.085Z,94921.00
2023-05-14T06:34:33.100Z,94921.00
2023-05-14T06:35:33.091Z,94919.00
2023-05-14T06:36:33.111Z,94917.00
2023-05-14T06:37:33.164Z,94917.00
2023-05-14T06:38:33.200Z,94913.00
2023-05-14T06:39:33.309Z,94909.00
2023-05-14T06:40:33.244Z,94913.00
2023-05-14T06:41:33.425Z,94913.00
2023-05-14T06:42:33.347Z,94913.00
2023-05-14T06:43:33.429Z,94915.00
2023-05-14T06:44:33.470Z,94913.00
2023-05-14T06:45:33.498Z,94919.00
2023-05-14T06:46:33.499Z,94911.00
2023-05-14T06:47:33.617Z,94917.00
2023-05-14T06:48:33.563Z,94915.00
2023-05-14T06:49:33.619Z,94919.00
2023-05-14T06:50:33.591Z,94921.00
2023-05-14T06:51:33.575Z,94917.00
2023-05-14T06:52:33.574Z,94917.00
2023-05-14T06:53:33.583Z,94913.00
2023-05-14T06:54:33.600Z,94913.00
2023-05-14T06:55:33.633Z,94913.00
2023-05-14T06:56:33.659Z,94913.00
2023-05-14T06:57:33.630Z,94919.00
2023-05-14T06:58:33.671Z,94919.00
2023-05-14T06:59:33.721Z,94917.00
2023-05-14T07:00:33.729Z,94923.00
2023-05-14T07:01:33.826Z,94919.00
2023-05-14T07:02:33.934Z,94919.00
2023-05-14T07:03:33.917Z,94917.00
2023-05-14T07:04:33.883Z,94915.00
2023-05-14T07:05:33.849Z,94913.00
2023-05-14T07:06:33.832Z,94913.00
2023-05-14T07:07:33.908Z,94913.00
2023-05-14T07:08:33.889Z,94909.00
2023-05-14T07:09:33.957Z,94909.00
2023-05-14T07:10:33.947Z,94905.00
2023-05-14T07:11:33.934Z,94905.00
2023-05-14T07:12:33.954Z,94909.00
2023-05-14T07:13:33.980Z,94905.00
2023-05-14T07:14:34.048Z,94905.00
2023-05-14T07:15:34.003Z,94907.00
2023-05-14T07:16:34.129Z,94909.00
2023-05-14T07:17:34.087Z,94905.00
2023-05-14T07:18:34.104Z,94905.00
2023-05-14T07:19:34.132Z,94901.00
2023-05-14T07:20:34.120Z,94901.00
2023-05-14T07:21:34.205Z,94903.00
2023-05-14T07:22:34.269Z,94895.00
2023-05-14T07:23:34.357Z,94895.00
2023-05-14T07:24:34.380Z,94899.00
2023-05-14T07:25:34.444Z,94893.00
2023-05-14T07:26:34.484Z,94889.00
2023-05-14T07:27:34.548Z,94887.00
2023-05-14T07:28:34.545Z,94885.00
2023-05-14T07:29:34.667Z,94878.00
2023-05-14T07:30:34.687Z,94874.00
2023-05-14T07:31:34.821Z,94876.00
2023-05-14T07:32:34.808Z,94872.00
2023-05-14T07:33:34.732Z,94870.00
2023-05-14T07:34:34.834Z,94870.00
2023-05-14T07:35:34.865Z,94868.00
2023-05-14T07:36:35.796Z,94864.00
2023-05-14T07:37:34.886Z,94866.00
2023-05-14T07:38:34.876Z,94860.00
2023-05-14T07:39:34.928Z,94856.00
2023-05-14T07:40:35.008Z,94860.00
2023-05-14T07:41:35.065Z,94858.00
2023-05-14T07:42:36.931Z,94856.00
2023-05-14T07:43:35.179Z,94858.00
2023-05-14T07:44:35.128Z,94854.00
2023-05-14T07:45:35.134Z,94852.00
2023-05-14T07:46:35.155Z,94852.00
2023-05-14T07:47:35.235Z,94848.00
2023-05-14T07:48:35.204Z,94846.00
2023-05-14T07:49:35.306Z,94846.00
2023-05-14T07:50:35.247Z,94846.00
2023-05-14T07:51:35.278Z,94844.00
2023-05-14T07:52:35.286Z,94846.00
2023-05-14T07:53:35.271Z,94846.00
2023-05-14T07:54:35.294Z,94844.00
2023-05-14T07:55:35.382Z,94848.00
2023-05-14T07:56:35.305Z,94846.00
2023-05-14T07:57:35.296Z,94844.00
2023-05-14T07:58:35.428Z,94846.00
2023-05-14T07:59:35.539Z,94844.00
2023-05-14T08:00:35.550Z,94842.00
2023-05-14T08:01:37.108Z,94842.00
2023-05-14T08:02:35.672Z,94840.00
2023-05-14T08:03:35.636Z,94838.00
2023-05-14T08:04:35.637Z,94838.00
2023-05-14T08:05:35.550Z,94840.00
2023-05-14T08:06:35.561Z,94836.00
2023-05-14T08:07:35.567Z,94831.00
2023-05-14T08:08:35.552Z,94834.00
2023-05-14T08:09:35.563Z,94832.00
2023-05-14T08:10:35.557Z,94829.00
2023-05-14T08:11:35.504Z,94827.00
2023-05-14T08:12:35.506Z,94829.00
2023-05-14T08:13:35.469Z,94827.00
2023-05-14T08:14:35.593Z,94825.00
2023-05-14T08:15:35.464Z,94829.00
2023-05-14T08:16:35.511Z,94821.00
2023-05-14T08:17:35.482Z,94817.00
2023-05-14T08:18:35.438Z,94817.00
2023-05-14T08:19:35.460Z,94817.00
2023-05-14T08:20:35.467Z,94817.00
2023-05-14T08:21:35.452Z,94813.00
2023-05-14T08:22:35.436Z,94813.00
2023-05-14T08:23:35.489Z,94811.00
2023-05-14T08:24:35.465Z,94813.00
2023-05-14T08:25:35.417Z,94813.00
2023-05-14T08:26:35.415Z,94811.00
2023-05-14T08:27:35.437Z,94811.00
2023-05-14T08:28:35.400Z,94815.00
2023-05-14T08:29:35.432Z,94809.00
2023-05-14T08:30:35.415Z,94807.00
2023-05-14T08:31:35.427Z,94803.00
2023-05-14T08:32:35.429Z,94803.00
2023-05-14T08:33:35.381Z,94799.00
2023-05-14T08:34:35.371Z,94803.00
2023-05-14T08:35:35.357Z,94803.00
2023-05-14T08:36:35.367Z,94799.00
2023-05-14T08:37:35.303Z,94805.00
2023-05-14T08:38:35.342Z,94797.00
2023-05-14T08:39:35.357Z,94799.00
2023-05-14T08:40:35.304Z,94799.00
2023-05-14T08:41:35.313Z,94799.00
2023-05-14T08:42:35.307Z,94797.00
2023-05-14T08:43:35.302Z,94797.00
2023-05-14T08:44:35.358Z,94801.00
2023-05-14T08:45:35.279Z,94797.00
2023-05-14T08:46:35.326Z,94797.00
2023-05-14T08:47:35.340Z,94795.00
2023-05-14T08:48:35.666Z,94799.00
2023-05-14T08:49:35.342Z,94795.00
2023-05-14T08:50:35.253Z,94795.00
2023-05-14T08:51:35.255Z,94793.00
2023-05-14T08:52:35.245Z,94791.00
2023-05-14T08:53:35.228Z,94789.00
2023-05-14T08:54:35.247Z,94789.00
2023-05-14T08:55:35.247Z,94789.00
2023-05-14T08:56:35.172Z,94791.00
2023-05-14T08:57:35.201Z,94787.00
2023-05-14T08:58:35.290Z,94789.00
2023-05-14T08:59:35.320Z,94785.00
2023-05-14T09:00:35.384Z,94787.00
2023-05-14T09:01:35.450Z,94781.00
2023-05-14T09:02:35.457Z,94780.00
2023-05-14T09:03:35.545Z,94778.00
2023-05-14T09:04:35.525Z,94781.00
2023-05-14T09:05:35.524Z,94783.00
2023-05-14T09:06:35.524Z,94780.00
2023-05-14T09:07:35.661Z,94780.00
2023-05-14T09:08:35.602Z,94774.00
2023-05-14T09:09:35.683Z,94776.00
2023-05-14T09:10:35.656Z,94778.00
2023-05-14T09:11:35.685Z,94776.00
2023-05-14T09:12:36.768Z,94778.00
2023-05-14T09:13:35.837Z,94780.00
2023-05-14T09:14:35.846Z,94778.00
2023-05-14T09:15:35.924Z,94776.00
2023-05-14T09:16:35.991Z,94774.00
2023-05-14T09:17:36.008Z,94774.00
2023-05-14T09:18:36.039Z,94772.00
2023-05-14T09:19:36.036Z,94770.00
2023-05-14T09:20:36.060Z,94772.00
2023-05-14T09:21:36.091Z,94768.00
2023-05-14T09:22:36.105Z,94770.00
2023-05-14T09:23:36.183Z,94768.00
2023-05-14T09:24:36.192Z,94766.00
2023-05-14T09:25:36.218Z,94762.00
2023-05-14T09:26:36.274Z,94758.00
2023-05-14T09:27:36.320Z,94756.00
2023-05-14T09:28:36.358Z,94758.00
2023-05-14T09:29:36.430Z,94754.00
2023-05-14T09:30:36.434Z,94754.00
2023-05-14T09:31:36.503Z,94756.00
2023-05-14T09:32:36.515Z,94756.00
2023-05-14T09:33:36.565Z,94752.00
2023-05-14T09:34:36.584Z,94752.00
2023-05-14T09:35:36.622Z,94750.00
2023-05-14T09:36:36.656Z,94750.00
2023-05-14T09:37:36.721Z,94746.00
2023-05-14T09:38:36.734Z,94742.00
2023-05-14T09:39:36.832Z,94742.00
2023-05-14T09:40:36.791Z,94742.00
2023-05-14T09:41:36.863Z,94738.00
2023-05-14T09:42:36.884Z,94736.00
2023-05-14T09:43:36.903Z,94736.00
2023-05-14T09:44:36.960Z,94736.00
2023-05-14T09:45:36.945Z,94730.00
2023-05-14T09:46:37.015Z,94730.00
2023-05-14T09:47:37.195Z,94727.00
2023-05-14T09:48:37.211Z,94721.00
2023-05-14T09:49:37.203Z,94723.00
2023-05-14T09:50:37.190Z,94721.00
2023-05-14T09:51:37.263Z,94721.00
2023-05-14T09:52:37.371Z,94717.00
2023-05-14T09:53:37.345Z,94717.00
2023-05-14T09:54:37.420Z,94715.00
2023-05-14T09:55:37.462Z,94715.00
2023-05-14T09:56:37.527Z,94715.00
2023-05-14T09:57:37.554Z,94715.00
2023-05-14T09:58:37.581Z,94715.00
2023-05-14T09:59:37.717Z,94713.00
2023-05-14T10:00:37.733Z,94713.00
2023-05-14T10:01:37.909Z,94711.00
2023-05-14T10:02:38.204Z,94711.00
2023-05-14T10:03:38.270Z,94711.00
2023-05-14T10:04:38.015Z,94713.00
2023-05-14T10:05:37.967Z,94711.00
2023-05-14T10:06:38.006Z,94713.00
2023-05-14T10:07:38.039Z,94711.00
2023-05-14T10:08:38.068Z,94713.00
2023-05-14T10:09:38.101Z,94715.00
2023-05-14T10:10:38.138Z,94711.00
2023-05-14T10:11:38.239Z,94711.00
2023-05-14T10:12:38.244Z,94711.00
2023-05-14T10:13:38.270Z,94713.00
2023-05-14T10:14:38.362Z,94715.00
2023-05-14T10:15:38.324Z,94711.00
2023-05-14T10:16:38.484Z,94709.00
2023-05-14T10:17:38.420Z,94709.00
2023-05-14T10:18:38.430Z,94707.00
2023-05-14T10:19:38.468Z,94709.00
2023-05-14T10:20:38.490Z,94705.00
2023-05-14T10:21:38.533Z,94703.00
2023-05-14T10:22:38.551Z,94705.00
2023-05-14T10:23:38.599Z,94707.00
2023-05-14T10:24:38.613Z,94699.00
2023-05-14T10:25:38.635Z,94703.00
2023-05-14T10:26:38.671Z,94699.00
2023-05-14T10:27:38.727Z,94701.00
2023-05-14T10:28:38.788Z,94699.00
2023-05-14T10:29:38.811Z,94691.00
2023-05-14T10:30:38.820Z,94691.00
2023-05-14T10:31:38.921Z,94689.00
2023-05-14T10:32:38.892Z,94691.00
2023-05-14T10:33:38.860Z,94687.00
2023-05-14T10:34:38.981Z,94685.00
2023-05-14T10:35:38.916Z,94685.00
2023-05-14T10:36:38.996Z,94685.00
2023-05-14T10:37:39.004Z,94689.00
2023-05-14T10:38:39.087Z,94689.00
2023-05-14T10:39:39.566Z,94685.00
2023-05-14T10:40:39.077Z,94685.00
2023-05-14T10:41:39.161Z,94685.00
2023-05-14T10:42:39.183Z,94683.00
2023-05-14T10:43:39.194Z,94687.00
2023-05-14T10:44:39.262Z,94689.00
2023-05-14T10:45:39.281Z,94683.00
2023-05-14T10:46:39.369Z,94682.00
2023-05-14T10:47:39.391Z,94683.00
2023-05-14T10:48:39.339Z,94687.00
2023-05-14T10:49:43.296Z,94685.00
2023-05-14T10:50:39.433Z,94685.00
2023-05-14T10:51:39.516Z,94683.00
2023-05-14T10:52:39.428Z,94682.00
2023-05-14T10:53:39.347Z,94682.00
2023-05-14T10:54:39.346Z,94678.00
2023-05-14T10:55:39.341Z,94676.00
2023-05-14T10:56:39.329Z,94674.00
2023-05-14T10:57:39.351Z,94674.00
2023-05-14T10:58:39.308Z,94670.00
2023-05-14T10:59:39.386Z,94668.00
2023-05-14T11:00:39.300Z,94664.00
2023-05-14T11:01:39.293Z,94660.00
2023-05-14T11:02:39.376Z,94660.00
2023-05-14T11:03:39.294Z,94654.00
2023-05-14T11:04:39.309Z,94654.00
2023-05-14T11:05:39.296Z,94654.00
2023-05-14T11:06:39.271Z,94652.00
2023-05-14T11:07:39.289Z,94650.00
2023-05-14T11:08:39.319Z,94648.00
2023-05-14T11:09:39.368Z,94654.00
2023-05-14T11:10:39.457Z,94648.00
2023-05-14T11:11:39.435Z,94646.00
2023-05-14T11:12:39.452Z,94650.00
2023-05-14T11:13:39.540Z,94650.00
2023-05-14T11:14:39.532Z,94646.00
2023-05-14T11:15:39.590Z,94646.00
2023-05-14T11:16:39.669Z,94644.00
2023-05-14T11:17:39.706Z,94648.00
2023-05-14T11:18:39.737Z,94646.00
2023-05-14T11:19:39.701Z,94642.00
2023-05-14T11:20:39.747Z,94642.00
2023-05-14T11:21:39.813Z,94642.00
2023-05-14T11:22:39.794Z,94638.00
2023-05-14T11:23:39.811Z,94640.00
2023-05-14T11:24:39.869Z,94638.00
2023-05-14T11:25:39.946Z,94638.00
2023-05-14T11:26:39.954Z,94632.00
2023-05-14T11:27:39.968Z,94638.00
2023-05-14T11:28:40.016Z,94632.00
2023-05-14T11:29:40.037Z,94629.00
2023-05-14T11:30:40.059Z,94632.00
2023-05-14T11:31:40.062Z,94634.00
2023-05-14T11:32:40.118Z,94634.00
2023-05-14T11:33:40.148Z,94631.00
2023-05-14T11:34:40.086Z,94629.00
2023-05-14T11:35:40.238Z,94629.00
2023-05-14T11:36:40.171Z,94631.00
2023-05-14T11:37:40.208Z,94632.00
2023-05-14T11:38:40.248Z,94631.00
2023-05-14T11:39:40.280Z,94621.00
2023-05-14T11:40:40.292Z,94629.00
2023-05-14T11:41:40.354Z,94621.00
2023-05-14T11:42:40.397Z,94629.00
2023-05-14T11:43:40.374Z,94621.00
2023-05-14T11:44:40.423Z,94621.00